Time;durP1;ratioP1;P1;durP2;ratioP2;P2;SDS_P1;SDS_P2;PMS_P1;PMS_P2;Temp;Humidity;BMP_temperature;BMP_pressure;BME280_temperature;BME280_humidity;BME280_pressure;Samples;Min_cycle;Max_cycle;Signal;HPM_P1;HPM_P2
2023/07/28 00:00:05;;;;;;;1.88;1.60;;;25.30;49.20;;;;;;5130564;27;45330;-70
2023/07/28 00:02:32;;;;;;;1.98;1.42;;;25.30;49.20;;;;;;5130779;27;45317;-70
2023/07/28 00:05:00;;;;;;;1.40;1.30;;;25.30;49.20;;;;;;5129812;27;45382;-70
2023/07/28 00:07:27;;;;;;;2.65;1.60;;;25.30;49.30;;;;;;5130359;27;45406;-70
2023/07/28 00:09:54;;;;;;;2.03;1.63;;;25.20;49.20;;;;;;5130369;27;47397;-70
2023/07/28 00:12:22;;;;;;;1.50;1.40;;;25.20;49.20;;;;;;5130403;27;45322;-71
2023/07/28 00:14:48;;;;;;;2.00;1.33;;;25.20;49.20;;;;;;5130547;27;45550;-71
2023/07/28 00:17:15;;;;;;;1.85;1.42;;;25.20;49.20;;;;;;5130638;27;45475;-70
2023/07/28 00:19:42;;;;;;;1.48;1.38;;;25.20;49.20;;;;;;5130218;27;46401;-70
2023/07/28 00:22:10;;;;;;;1.60;1.50;;;25.20;49.90;;;;;;5130261;27;45255;-70
2023/07/28 00:24:37;;;;;;;2.67;1.50;;;25.20;49.20;;;;;;5130259;27;45234;-71
2023/07/28 00:27:04;;;;;;;1.80;1.42;;;25.20;49.20;;;;;;5130376;27;45402;-70
2023/07/28 00:29:31;;;;;;;1.55;1.45;;;25.20;49.30;;;;;;5130081;27;45589;-70
2023/07/28 00:31:58;;;;;;;1.60;1.50;;;25.10;49.20;;;;;;5129998;27;45393;-70
2023/07/28 00:34:25;;;;;;;1.60;1.50;;;25.10;49.20;;;;;;5130114;27;45279;-70
2023/07/28 00:36:52;;;;;;;1.80;1.70;;;25.10;49.30;;;;;;5130626;27;45353;-71
2023/07/28 00:39:20;;;;;;;1.40;1.30;;;25.10;49.20;;;;;;5130007;27;45373;-70
2023/07/28 00:41:47;;;;;;;1.70;1.60;;;25.10;49.30;;;;;;5129922;27;45315;-70
2023/07/28 00:44:14;;;;;;;1.50;1.40;;;25.10;49.30;;;;;;5130256;27;45316;-70
2023/07/28 00:46:41;;;;;;;2.00;1.50;;;25.00;49.30;;;;;;5130177;27;45426;-70
2023/07/28 00:49:08;;;;;;;1.70;1.60;;;25.00;49.30;;;;;;5129211;27;45813;-70
2023/07/28 00:51:35;;;;;;;2.33;1.45;;;25.00;49.30;;;;;;5129276;27;45393;-70
2023/07/28 00:54:02;;;;;;;1.48;1.38;;;25.00;49.30;;;;;;5129575;27;45374;-70
2023/07/28 00:56:30;;;;;;;1.45;1.35;;;25.00;49.30;;;;;;5130112;27;45377;-71
2023/07/28 00:58:57;;;;;;;1.65;1.52;;;25.00;49.30;;;;;;5129597;27;45289;-70
2023/07/28 01:01:24;;;;;;;1.45;1.23;;;25.00;49.40;;;;;;5129699;27;45454;-70
2023/07/28 01:03:56;;;;;;;1.48;1.38;;;25.00;49.40;;;;;;5129489;27;45350;-71
2023/07/28 01:06:27;;;;;;;1.60;1.50;;;25.00;49.40;;;;;;5129822;27;45163;-70
2023/07/28 01:08:57;;;;;;;1.63;1.33;;;25.00;49.40;;;;;;5129357;27;47022;-71
2023/07/28 01:11:24;;;;;;;1.48;1.38;;;25.00;49.40;;;;;;5129429;27;45328;-70
2023/07/28 01:13:52;;;;;;;1.42;1.33;;;24.90;49.30;;;;;;5129751;27;45456;-70
2023/07/28 01:16:19;;;;;;;1.58;1.38;;;24.90;49.40;;;;;;5129683;27;45403;-70
2023/07/28 01:18:46;;;;;;;2.15;1.35;;;24.90;49.40;;;;;;5126789;27;46145;-70
2023/07/28 01:21:15;;;;;;;1.40;1.17;;;24.90;49.40;;;;;;5129434;27;45267;-70
2023/07/28 01:23:45;;;;;;;1.40;1.30;;;24.90;49.40;;;;;;5129235;27;45443;-70
2023/07/28 01:26:12;;;;;;;2.50;1.42;;;24.90;49.40;;;;;;5129455;27;45544;-70
2023/07/28 01:28:41;;;;;;;1.40;1.30;;;24.90;49.40;;;;;;5129098;27;46539;-70
2023/07/28 01:31:08;;;;;;;1.40;1.30;;;24.90;49.40;;;;;;5129059;27;45366;-70
2023/07/28 01:33:35;;;;;;;1.50;1.30;;;24.80;49.30;;;;;;5129209;27;45384;-70
2023/07/28 01:36:02;;;;;;;1.30;1.20;;;24.80;49.40;;;;;;5129309;27;45240;-70
2023/07/28 01:38:28;;;;;;;1.60;1.50;;;24.80;49.40;;;;;;5128768;27;45237;-70
2023/07/28 01:40:55;;;;;;;2.35;1.33;;;24.80;49.40;;;;;;5128127;27;45386;-70
2023/07/28 01:43:22;;;;;;;1.38;1.20;;;24.80;49.50;;;;;;5129028;27;45575;-69
2023/07/28 01:45:50;;;;;;;1.60;1.30;;;24.80;49.40;;;;;;5129044;27;45426;-70
2023/07/28 01:48:17;;;;;;;1.92;1.60;;;24.80;49.40;;;;;;5128665;27;46783;-70
2023/07/28 01:50:44;;;;;;;1.38;1.27;;;24.80;49.50;;;;;;5128815;27;45345;-70
2023/07/28 01:53:11;;;;;;;1.65;1.55;;;24.70;49.40;;;;;;5128522;27;45280;-70
2023/07/28 01:55:38;;;;;;;1.20;1.10;;;24.70;49.50;;;;;;5128989;27;45228;-70
2023/07/28 01:58:04;;;;;;;1.20;1.10;;;24.70;49.50;;;;;;5128504;27;47345;-70
2023/07/28 02:00:31;;;;;;;1.42;1.33;;;24.70;49.50;;;;;;5128791;27;45263;-70
2023/07/28 02:03:01;;;;;;;2.50;1.30;;;24.70;49.50;;;;;;5128633;27;45328;-70
2023/07/28 02:05:28;;;;;;;1.60;1.50;;;24.70;49.50;;;;;;5128657;27;45365;-70
2023/07/28 02:07:55;;;;;;;1.30;1.20;;;24.70;49.50;;;;;;5128373;27;45393;-70
2023/07/28 02:10:23;;;;;;;1.75;1.38;;;24.70;49.50;;;;;;5128522;27;45259;-70
2023/07/28 02:12:50;;;;;;;1.35;1.23;;;24.70;49.50;;;;;;5128495;27;45317;-70
2023/07/28 02:15:16;;;;;;;1.48;1.38;;;24.70;49.50;;;;;;5127813;27;45349;-70
2023/07/28 02:17:43;;;;;;;1.60;1.38;;;24.70;49.50;;;;;;5125570;27;45377;-70
2023/07/28 02:20:12;;;;;;;1.40;1.30;;;24.70;49.50;;;;;;5128424;27;45244;-70
2023/07/28 02:22:39;;;;;;;1.60;1.50;;;24.70;49.60;;;;;;5128480;27;45218;-70
2023/07/28 02:25:07;;;;;;;1.48;1.17;;;24.70;49.50;;;;;;5127636;27;45361;-70
2023/07/28 02:27:34;;;;;;;1.98;1.23;;;24.70;49.50;;;;;;5127933;27;45477;-70
2023/07/28 02:30:00;;;;;;;1.10;1.10;;;24.60;49.50;;;;;;5128126;27;45135;-70
2023/07/28 02:32:28;;;;;;;1.33;1.23;;;24.60;49.50;;;;;;5128296;27;45252;-70
2023/07/28 02:34:55;;;;;;;1.40;1.30;;;24.60;49.50;;;;;;5128384;27;45325;-70
2023/07/28 02:37:23;;;;;;;1.60;1.25;;;24.60;49.60;;;;;;5127845;27;45406;-70
2023/07/28 02:39:50;;;;;;;1.73;1.42;;;24.60;49.50;;;;;;5127999;27;45323;-70
2023/07/28 02:42:17;;;;;;;1.45;1.10;;;24.60;49.40;;;;;;5128139;27;45218;-70
2023/07/28 02:44:44;;;;;;;1.50;1.40;;;24.60;49.50;;;;;;5128015;27;45256;-70
2023/07/28 02:47:11;;;;;;;1.30;1.20;;;24.60;49.50;;;;;;5127782;27;46396;-70
2023/07/28 02:49:37;;;;;;;2.85;1.35;;;24.60;49.60;;;;;;5127830;27;45228;-70
2023/07/28 02:52:05;;;;;;;1.60;1.42;;;24.60;49.50;;;;;;5127988;27;45316;-70
2023/07/28 02:54:33;;;;;;;1.10;1.00;;;24.60;49.50;;;;;;5127785;27;45440;-70
2023/07/28 02:57:00;;;;;;;1.52;1.10;;;24.60;49.60;;;;;;5127730;27;45402;-70
2023/07/28 02:59:27;;;;;;;1.42;1.20;;;24.60;49.60;;;;;;5127668;27;45430;-70
2023/07/28 03:01:53;;;;;;;1.00;1.00;;;24.50;49.50;;;;;;5127867;27;45383;-70
2023/07/28 03:04:21;;;;;;;1.60;1.50;;;24.50;49.50;;;;;;5127778;27;45445;-70
2023/07/28 03:06:48;;;;;;;1.33;1.10;;;24.50;49.60;;;;;;5127425;27;45437;-70
2023/07/28 03:09:16;;;;;;;1.50;1.40;;;24.50;49.60;;;;;;5126961;27;45224;-70
2023/07/28 03:11:44;;;;;;;1.17;1.17;;;24.50;49.60;;;;;;5127359;27;45285;-70
2023/07/28 03:14:12;;;;;;;1.20;1.10;;;24.50;49.60;;;;;;5127555;27;45394;-70
2023/07/28 03:16:39;;;;;;;1.10;1.08;;;24.50;49.60;;;;;;5127437;27;45212;-70
2023/07/28 03:19:06;;;;;;;1.13;1.02;;;24.50;49.60;;;;;;5127511;27;45385;-70
2023/07/28 03:21:33;;;;;;;1.38;1.27;;;24.50;49.60;;;;;;5127786;27;45377;-70
2023/07/28 03:24:00;;;;;;;1.25;1.15;;;24.50;49.60;;;;;;5127498;27;45657;-71
2023/07/28 03:26:27;;;;;;;1.30;1.20;;;24.50;49.60;;;;;;5127402;27;45578;-70
2023/07/28 03:28:55;;;;;;;1.30;1.20;;;24.50;49.60;;;;;;5131222;27;45139;-70
2023/07/28 03:31:22;;;;;;;1.48;1.38;;;24.50;50.30;;;;;;5131231;27;45342;-70
2023/07/28 03:33:48;;;;;;;1.30;1.20;;;24.50;49.70;;;;;;5131249;27;45425;-70
2023/07/28 03:36:15;;;;;;;1.30;1.20;;;24.50;49.60;;;;;;5130923;27;45329;-70
2023/07/28 03:38:42;;;;;;;2.00;1.20;;;24.50;49.60;;;;;;5130871;27;45330;-70
2023/07/28 03:41:09;;;;;;;1.20;1.10;;;24.50;49.60;;;;;;5130985;27;45248;-70
2023/07/28 03:43:36;;;;;;;1.67;1.55;;;24.50;49.60;;;;;;5130975;27;45399;-70
2023/07/28 03:46:04;;;;;;;1.30;1.20;;;24.40;49.60;;;;;;5130873;27;46698;-70
2023/07/28 03:48:31;;;;;;;1.15;1.05;;;24.50;49.60;;;;;;5130559;27;45274;-70
2023/07/28 03:50:57;;;;;;;1.40;1.27;;;24.40;49.70;;;;;;5130848;27;45403;-70
2023/07/28 03:53:24;;;;;;;1.30;1.20;;;24.40;49.70;;;;;;5130197;27;45318;-70
2023/07/28 03:55:51;;;;;;;1.30;1.20;;;24.40;49.70;;;;;;5129910;27;45377;-70
2023/07/28 03:58:18;;;;;;;1.15;1.05;;;24.40;49.70;;;;;;5130636;27;45417;-69
2023/07/28 04:00:45;;;;;;;1.23;1.10;;;24.40;49.70;;;;;;5130707;27;45369;-70
2023/07/28 04:03:13;;;;;;;1.20;1.10;;;24.40;49.70;;;;;;5130679;27;45232;-70
2023/07/28 04:05:40;;;;;;;1.67;1.55;;;24.40;49.70;;;;;;5130160;27;46407;-70
2023/07/28 04:08:07;;;;;;;2.33;1.40;;;24.40;49.70;;;;;;5130564;27;45451;-70
2023/07/28 04:10:33;;;;;;;1.40;1.33;;;24.40;49.70;;;;;;5130508;27;45384;-70
2023/07/28 04:13:00;;;;;;;1.20;1.10;;;24.40;49.70;;;;;;5130872;27;45376;-71
2023/07/28 04:15:27;;;;;;;1.55;1.45;;;24.40;49.70;;;;;;5130143;27;46388;-71
2023/07/28 04:17:54;;;;;;;1.25;1.15;;;24.30;49.70;;;;;;5130245;27;45390;-70
2023/07/28 04:20:22;;;;;;;1.40;1.30;;;24.30;49.70;;;;;;5130778;27;45160;-70
2023/07/28 04:22:49;;;;;;;1.80;1.10;;;24.30;49.70;;;;;;5130482;27;45362;-70
2023/07/28 04:25:16;;;;;;;2.13;1.10;;;24.30;49.60;;;;;;5129919;27;46380;-70
2023/07/28 04:27:43;;;;;;;1.38;1.20;;;24.30;49.60;;;;;;5130138;27;45327;-70
2023/07/28 04:30:10;;;;;;;1.10;1.10;;;24.30;49.60;;;;;;5130315;27;45244;-70
2023/07/28 04:32:37;;;;;;;0.95;0.95;;;24.30;49.70;;;;;;5130299;27;45441;-70
2023/07/28 04:35:05;;;;;;;1.25;1.10;;;24.30;49.60;;;;;;5129954;27;46336;-70
2023/07/28 04:37:33;;;;;;;1.08;1.00;;;24.30;49.60;;;;;;5129637;27;45361;-69
2023/07/28 04:40:00;;;;;;;1.23;1.20;;;24.30;49.60;;;;;;5128799;27;45190;-70
2023/07/28 04:42:27;;;;;;;1.23;0.93;;;24.30;49.60;;;;;;5130215;27;45313;-70
2023/07/28 04:44:53;;;;;;;1.00;1.00;;;24.30;49.60;;;;;;5129449;27;45325;-70
2023/07/28 04:47:20;;;;;;;1.73;1.10;;;24.30;49.60;;;;;;5129434;27;45332;-70
2023/07/28 04:49:47;;;;;;;2.17;1.25;;;24.30;49.60;;;;;;5130042;27;45401;-71
2023/07/28 04:52:14;;;;;;;2.80;1.17;;;24.30;49.50;;;;;;5130404;27;45464;-71
2023/07/28 04:54:42;;;;;;;1.13;1.02;;;24.30;49.50;;;;;;5129413;27;45352;-71
2023/07/28 04:57:09;;;;;;;0.93;0.90;;;24.30;49.50;;;;;;5129826;27;45500;-71
2023/07/28 04:59:36;;;;;;;1.23;1.13;;;24.30;49.50;;;;;;5130033;27;45326;-71
2023/07/28 05:02:03;;;;;;;1.30;1.20;;;24.30;49.50;;;;;;5129901;27;45419;-71
2023/07/28 05:04:30;;;;;;;1.23;1.13;;;24.30;49.50;;;;;;5129293;27;46477;-71
2023/07/28 05:06:57;;;;;;;1.08;1.02;;;24.20;49.50;;;;;;5129433;27;45391;-71
2023/07/28 05:09:24;;;;;;;1.10;1.10;;;24.20;49.50;;;;;;5129712;27;45349;-71
2023/07/28 05:11:52;;;;;;;1.33;1.20;;;24.20;49.50;;;;;;5129801;27;45450;-71
2023/07/28 05:14:19;;;;;;;1.27;1.13;;;24.20;49.50;;;;;;5129337;27;47303;-71
2023/07/28 05:16:46;;;;;;;1.13;1.00;;;24.20;49.60;;;;;;5129485;27;45386;-71
2023/07/28 05:19:13;;;;;;;1.20;1.10;;;24.20;49.50;;;;;;5129513;27;45349;-71
2023/07/28 05:21:40;;;;;;;1.25;1.10;;;24.20;49.50;;;;;;5129093;27;45464;-70
2023/07/28 05:24:07;;;;;;;1.00;1.00;;;24.20;49.50;;;;;;5128979;27;45368;-71
2023/07/28 05:26:34;;;;;;;0.90;0.90;;;24.20;49.50;;;;;;5129223;27;45270;-72
2023/07/28 05:29:02;;;;;;;0.95;0.95;;;24.20;49.50;;;;;;5129221;27;45179;-71
2023/07/28 05:31:29;;;;;;;1.17;1.10;;;24.20;49.40;;;;;;5128990;27;45314;-71
2023/07/28 05:33:56;;;;;;;1.17;1.17;;;24.20;49.50;;;;;;5128861;27;45471;-71
2023/07/28 05:36:23;;;;;;;1.35;1.25;;;24.20;49.50;;;;;;5129188;27;45341;-71
2023/07/28 05:38:50;;;;;;;1.20;1.05;;;24.20;49.50;;;;;;5129282;27;45298;-71
2023/07/28 05:41:17;;;;;;;1.30;1.20;;;24.20;49.50;;;;;;5129194;27;45335;-71
2023/07/28 05:43:44;;;;;;;1.13;1.00;;;24.20;50.20;;;;;;5128614;27;47195;-71
2023/07/28 05:46:12;;;;;;;0.93;0.93;;;24.20;49.40;;;;;;5128837;27;46223;-71
2023/07/28 05:48:40;;;;;;;0.95;0.95;;;24.20;49.40;;;;;;5128793;27;45303;-71
2023/07/28 05:51:07;;;;;;;1.38;1.02;;;24.30;49.40;;;;;;5129352;27;45403;-70
2023/07/28 05:53:34;;;;;;;1.13;0.93;;;24.30;49.40;;;;;;5128289;27;46484;-71
2023/07/28 05:56:01;;;;;;;0.90;0.90;;;24.30;49.40;;;;;;5128666;27;45397;-71
2023/07/28 05:58:28;;;;;;;1.15;0.90;;;24.30;49.40;;;;;;5128849;27;45354;-70
2023/07/28 06:00:54;;;;;;;1.20;1.10;;;24.30;49.40;;;;;;5128791;27;45259;-70
2023/07/28 06:03:23;;;;;;;1.00;1.00;;;24.30;49.40;;;;;;5128477;27;45430;-71
2023/07/28 06:05:50;;;;;;;0.90;0.90;;;24.30;49.40;;;;;;5128493;27;45447;-70
2023/07/28 06:08:17;;;;;;;1.02;1.02;;;24.30;49.40;;;;;;5127925;27;45291;-70
2023/07/28 06:10:44;;;;;;;1.10;1.10;;;24.30;49.40;;;;;;5128646;27;45306;-71
2023/07/28 06:13:11;;;;;;;1.00;1.00;;;24.30;50.00;;;;;;5128308;27;46494;-70
2023/07/28 06:15:39;;;;;;;1.13;1.02;;;24.30;49.40;;;;;;5128273;27;45350;-71
2023/07/28 06:18:06;;;;;;;1.20;1.10;;;24.30;49.40;;;;;;5128413;27;45377;-71
2023/07/28 06:20:35;;;;;;;0.98;0.98;;;24.30;49.40;;;;;;5128657;27;45175;-71
2023/07/28 06:23:02;;;;;;;0.90;0.90;;;24.30;49.40;;;;;;5128073;27;45221;-71
2023/07/28 06:25:29;;;;;;;0.90;0.90;;;24.30;49.50;;;;;;5128112;27;45377;-71
2023/07/28 06:27:56;;;;;;;1.00;1.00;;;24.30;49.40;;;;;;5128339;27;45319;-70
2023/07/28 06:30:22;;;;;;;1.00;1.00;;;24.30;49.50;;;;;;5128501;27;45292;-71
2023/07/28 06:32:49;;;;;;;0.93;0.93;;;24.30;49.50;;;;;;5128384;27;46419;-71
2023/07/28 06:35:16;;;;;;;0.90;0.90;;;24.30;49.60;;;;;;5127845;27;45970;-71
2023/07/28 06:37:44;;;;;;;0.93;0.93;;;24.30;49.50;;;;;;5128195;27;45427;-71
2023/07/28 06:40:11;;;;;;;1.13;1.05;;;24.30;49.50;;;;;;5128198;27;45493;-71
2023/07/28 06:42:38;;;;;;;0.93;0.93;;;24.30;49.50;;;;;;5127823;27;46475;-70
2023/07/28 06:45:06;;;;;;;0.95;0.95;;;24.30;49.40;;;;;;5127997;27;45333;-71
2023/07/28 06:47:33;;;;;;;1.08;0.98;;;24.30;49.40;;;;;;5128035;27;45247;-70
2023/07/28 06:50:00;;;;;;;1.00;0.90;;;24.30;49.40;;;;;;5128192;27;45377;-70
2023/07/28 06:52:27;;;;;;;1.02;0.93;;;24.30;49.40;;;;;;5126791;27;45548;-70
2023/07/28 06:54:55;;;;;;;0.60;0.60;;;24.30;49.40;;;;;;5127598;27;45305;-70
2023/07/28 06:57:21;;;;;;;1.13;1.10;;;24.30;49.40;;;;;;5127929;27;45248;-70
2023/07/28 06:59:48;;;;;;;0.90;0.90;;;24.30;49.40;;;;;;5128028;27;45376;-71
2023/07/28 07:02:15;;;;;;;0.70;0.70;;;24.30;49.40;;;;;;5127189;27;45705;-70
2023/07/28 07:04:42;;;;;;;1.13;1.02;;;24.30;49.40;;;;;;5127812;27;45433;-70
2023/07/28 07:07:09;;;;;;;1.10;1.10;;;24.30;49.40;;;;;;5127787;27;45247;-70
2023/07/28 07:09:36;;;;;;;1.05;0.98;;;24.30;49.40;;;;;;5127761;27;45314;-70
2023/07/28 07:12:05;;;;;;;1.20;1.20;;;24.30;50.10;;;;;;5127660;27;47577;-71
2023/07/28 07:14:32;;;;;;;1.35;1.10;;;24.30;49.40;;;;;;5127540;27;45620;-70
2023/07/28 07:17:00;;;;;;;0.85;0.85;;;24.30;50.00;;;;;;5127776;27;45180;-71
2023/07/28 07:19:28;;;;;;;1.08;0.90;;;24.30;49.40;;;;;;5127697;27;45464;-71
2023/07/28 07:21:55;;;;;;;1.05;0.95;;;24.30;49.30;;;;;;5127360;27;46375;-70
2023/07/28 07:24:22;;;;;;;1.00;0.98;;;24.30;49.30;;;;;;5127247;27;45380;-71
2023/07/28 07:26:49;;;;;;;0.90;0.90;;;24.30;49.30;;;;;;5127465;27;45257;-70
2023/07/28 07:29:17;;;;;;;1.08;1.00;;;24.30;49.20;;;;;;5127662;27;45256;-70
2023/07/28 07:31:44;;;;;;;1.00;0.90;;;24.30;49.20;;;;;;5127161;27;46325;-71
2023/07/28 07:34:11;;;;;;;0.80;0.80;;;24.40;49.20;;;;;;5127201;27;45443;-71
2023/07/28 07:36:39;;;;;;;1.00;1.00;;;24.40;49.20;;;;;;5126772;27;45339;-70
2023/07/28 07:39:06;;;;;;;1.10;1.10;;;24.40;49.10;;;;;;5126822;27;45219;-70
2023/07/28 07:41:32;;;;;;;1.13;1.10;;;24.40;49.10;;;;;;5127275;27;45205;-70
2023/07/28 07:43:59;;;;;;;2.10;1.05;;;24.40;49.20;;;;;;5127074;27;45401;-70
2023/07/28 07:46:27;;;;;;;1.60;1.00;;;24.40;49.10;;;;;;5127329;27;45365;-71
2023/07/28 07:48:54;;;;;;;1.05;0.88;;;24.40;49.20;;;;;;5127252;27;45575;-71
2023/07/28 07:51:21;;;;;;;1.00;1.00;;;24.40;49.10;;;;;;5126932;27;45263;-71
2023/07/28 07:53:48;;;;;;;0.90;0.90;;;24.40;49.10;;;;;;5126536;27;45394;-71
2023/07/28 07:56:15;;;;;;;1.05;1.02;;;24.50;49.20;;;;;;5127143;27;45345;-71
2023/07/28 07:58:41;;;;;;;1.75;1.30;;;24.40;49.10;;;;;;5127343;27;45366;-71
2023/07/28 08:01:08;;;;;;;1.25;1.15;;;24.50;49.70;;;;;;5126934;27;46547;-71
2023/07/28 08:03:37;;;;;;;1.40;1.30;;;24.50;49.10;;;;;;5126903;27;45244;-70
2023/07/28 08:06:04;;;;;;;1.17;1.08;;;24.50;49.10;;;;;;5127059;27;45248;-70
2023/07/28 08:08:32;;;;;;;1.17;1.08;;;24.50;49.10;;;;;;5127090;27;45510;-71
2023/07/28 08:10:59;;;;;;;1.10;1.02;;;24.50;49.10;;;;;;5126673;27;45361;-71
2023/07/28 08:13:27;;;;;;;1.20;1.10;;;24.50;49.10;;;;;;5127044;27;45259;-71
2023/07/28 08:15:54;;;;;;;1.05;0.95;;;24.50;49.70;;;;;;5130449;27;45329;-70
2023/07/28 08:18:21;;;;;;;1.25;1.15;;;24.50;49.10;;;;;;5130646;27;45289;-71
2023/07/28 08:20:49;;;;;;;1.40;1.10;;;24.50;49.10;;;;;;5130001;27;46379;-69
2023/07/28 08:23:16;;;;;;;2.97;1.10;;;24.60;49.20;;;;;;5129453;27;45265;-70
2023/07/28 08:25:43;;;;;;;1.27;1.10;;;24.60;49.10;;;;;;5130261;27;45239;-70
2023/07/28 08:28:10;;;;;;;1.15;1.05;;;24.60;49.00;;;;;;5130628;27;45331;-70
2023/07/28 08:30:36;;;;;;;0.90;0.90;;;24.60;49.10;;;;;;5130029;27;46714;-70
2023/07/28 08:33:03;;;;;;;0.90;0.90;;;24.60;48.90;;;;;;5130200;27;45400;-70
2023/07/28 08:35:30;;;;;;;0.88;0.88;;;24.60;49.10;;;;;;5130077;27;45279;-71
2023/07/28 08:37:58;;;;;;;1.50;1.40;;;24.60;49.20;;;;;;5130522;27;45309;-70
2023/07/28 08:40:27;;;;;;;1.33;1.23;;;24.70;49.20;;;;;;5129887;27;45392;-70
2023/07/28 08:42:55;;;;;;;1.02;1.02;;;24.70;49.10;;;;;;5129893;27;45363;-71
2023/07/28 08:45:21;;;;;;;1.48;1.38;;;24.70;49.10;;;;;;5130030;27;45276;-71
2023/07/28 08:47:50;;;;;;;1.25;1.13;;;24.70;49.20;;;;;;5130293;27;45441;-70
2023/07/28 08:50:17;;;;;;;1.10;1.00;;;24.80;49.10;;;;;;5129620;27;45417;-71
2023/07/28 08:52:44;;;;;;;0.90;0.90;;;24.80;49.00;;;;;;5128783;27;45418;-71
2023/07/28 08:55:13;;;;;;;1.25;1.15;;;24.80;49.10;;;;;;5129546;27;45279;-72
2023/07/28 08:57:40;;;;;;;1.20;1.10;;;24.80;49.00;;;;;;5129891;27;45257;-71
2023/07/28 09:00:09;;;;;;;0.98;0.98;;;24.80;49.20;;;;;;5129076;27;46362;-72
2023/07/28 09:02:35;;;;;;;1.20;1.10;;;24.90;49.40;;;;;;5129489;27;45320;-72
2023/07/28 09:05:03;;;;;;;1.20;1.10;;;24.90;49.50;;;;;;5129700;27;45321;-72
2023/07/28 09:07:35;;;;;;;1.50;1.20;;;24.90;49.50;;;;;;5129569;27;45107;-71
2023/07/28 09:10:02;;;;;;;1.38;1.27;;;24.90;49.80;;;;;;5128584;27;45473;-72
2023/07/28 09:12:31;;;;;;;1.40;1.33;;;24.90;49.70;;;;;;5129516;27;45576;-72
2023/07/28 09:14:58;;;;;;;1.55;1.40;;;25.00;49.80;;;;;;5128765;27;45425;-71
2023/07/28 09:17:25;;;;;;;1.60;1.42;;;25.00;50.00;;;;;;5129518;27;45464;-72
2023/07/28 09:19:52;;;;;;;2.58;1.50;;;25.00;50.10;;;;;;5128333;27;46655;-71
2023/07/28 09:22:20;;;;;;;1.42;1.27;;;25.00;50.10;;;;;;5129331;27;45195;-71
2023/07/28 09:24:47;;;;;;;1.55;1.20;;;25.00;50.20;;;;;;5128764;27;45305;-71
2023/07/28 09:27:20;;;;;;;1.73;1.35;;;25.10;50.60;;;;;;5129445;27;45299;-71
2023/07/28 09:29:50;;;;;;;5.53;1.58;;;25.10;50.70;;;;;;5128831;27;45359;-71
2023/07/28 09:32:17;;;;;;;3.75;1.23;;;25.10;50.90;;;;;;5129133;27;45303;-71
2023/07/28 09:34:44;;;;;;;2.00;1.33;;;25.10;50.90;;;;;;5129110;27;45333;-71
2023/07/28 09:37:11;;;;;;;1.42;1.33;;;25.10;50.50;;;;;;5129287;27;45458;-71
2023/07/28 09:39:38;;;;;;;2.00;1.20;;;25.20;50.90;;;;;;5126193;27;46148;-71
2023/07/28 09:42:09;;;;;;;1.77;1.55;;;25.20;50.90;;;;;;5128967;27;45320;-71
2023/07/28 09:44:35;;;;;;;3.38;1.50;;;25.30;51.30;;;;;;5129040;27;45208;-70
2023/07/28 09:47:04;;;;;;;2.85;1.40;;;25.30;51.40;;;;;;5129175;27;45512;-70
2023/07/28 09:49:37;;;;;;;4.30;2.03;;;25.30;51.40;;;;;;5128685;27;45244;-70
2023/07/28 09:52:05;;;;;;;2.65;1.40;;;25.30;51.60;;;;;;5128792;27;45440;-71
2023/07/28 09:54:34;;;;;;;4.00;1.88;;;25.40;51.70;;;;;;5128625;27;45310;-71
2023/07/28 09:57:01;;;;;;;1.52;1.40;;;25.40;52.40;;;;;;5129012;27;45445;-70
2023/07/28 09:59:30;;;;;;;5.75;1.50;;;25.40;51.80;;;;;;5128601;27;46378;-70
2023/07/28 10:01:57;;;;;;;1.52;1.35;;;25.50;51.80;;;;;;5127964;27;45252;-70
2023/07/28 10:04:26;;;;;;;2.92;1.48;;;25.50;51.90;;;;;;5128709;27;45301;-71
2023/07/28 10:06:56;;;;;;;3.08;1.70;;;25.50;52.10;;;;;;5128743;27;45346;-71
2023/07/28 10:09:23;;;;;;;2.75;1.40;;;25.50;52.10;;;;;;5128232;27;46678;-71
2023/07/28 10:11:50;;;;;;;2.67;1.30;;;25.50;52.20;;;;;;5128544;27;45263;-72
2023/07/28 10:14:26;;;;;;;3.75;1.33;;;25.60;53.00;;;;;;5128552;27;45368;-71
2023/07/28 10:16:53;;;;;;;1.90;1.42;;;25.60;52.60;;;;;;5129026;27;45452;-71
2023/07/28 10:19:21;;;;;;;2.65;1.60;;;25.60;52.60;;;;;;5128593;27;45455;-71
2023/07/28 10:21:49;;;;;;;2.45;1.40;;;25.60;52.70;;;;;;5128507;27;45248;-71
2023/07/28 10:24:16;;;;;;;1.55;1.40;;;25.60;52.70;;;;;;5128686;27;45358;-71
2023/07/28 10:26:44;;;;;;;1.70;1.42;;;25.70;52.70;;;;;;5125763;27;45390;-70
2023/07/28 10:29:11;;;;;;;3.42;1.52;;;25.70;52.90;;;;;;5127716;27;45730;-70
2023/07/28 10:31:38;;;;;;;2.17;1.38;;;25.70;52.70;;;;;;5127825;27;45277;-71
2023/07/28 10:34:05;;;;;;;3.63;1.55;;;25.70;53.00;;;;;;5128143;27;45241;-72
2023/07/28 10:36:35;;;;;;;2.03;1.52;;;25.70;52.90;;;;;;5127490;27;45426;-71
2023/07/28 10:39:17;;;;;;;2.28;1.80;;;25.70;53.00;;;;;;5127996;27;45302;-71
2023/07/28 10:42:02;;;;;;;4.35;1.42;;;25.70;53.00;;;;;;5127914;27;45364;-70
2023/07/28 10:44:29;;;;;;;1.65;1.55;;;25.80;52.90;;;;;;5125561;27;45462;-71
2023/07/28 10:46:56;;;;;;;2.28;1.40;;;25.70;52.80;;;;;;5128242;27;45339;-70
2023/07/28 10:49:24;;;;;;;3.28;1.48;;;25.80;52.90;;;;;;5127723;27;46601;-70
2023/07/28 10:51:51;;;;;;;2.15;1.45;;;25.80;52.80;;;;;;5128179;27;45293;-70
2023/07/28 10:54:20;;;;;;;2.00;1.70;;;25.80;52.60;;;;;;5127736;27;45413;-70
2023/07/28 10:56:48;;;;;;;1.55;1.45;;;25.90;52.70;;;;;;5128141;27;45322;-71
2023/07/28 10:59:15;;;;;;;2.67;1.80;;;25.90;52.70;;;;;;5127673;27;46973;-70
2023/07/28 11:01:42;;;;;;;2.20;1.50;;;25.90;53.20;;;;;;5127234;27;45314;-70
2023/07/28 11:04:13;;;;;;;1.67;1.55;;;25.90;52.60;;;;;;5127517;27;45299;-70
2023/07/28 11:06:42;;;;;;;1.60;1.50;;;25.90;52.50;;;;;;5127875;27;45280;-70
2023/07/28 11:09:09;;;;;;;1.83;1.42;;;25.90;52.60;;;;;;5127719;27;47882;-70
2023/07/28 11:11:37;;;;;;;1.50;1.40;;;25.90;52.50;;;;;;5127615;27;45325;-70
2023/07/28 11:14:05;;;;;;;3.72;1.73;;;25.90;52.60;;;;;;5127708;27;45283;-71
2023/07/28 11:16:34;;;;;;;2.13;1.63;;;26.00;52.60;;;;;;5127740;27;45399;-71
2023/07/28 11:19:01;;;;;;;2.63;1.60;;;26.00;52.60;;;;;;5127463;27;45571;-71
2023/07/28 11:21:28;;;;;;;4.88;1.90;;;26.00;52.70;;;;;;5127449;27;45309;-70
2023/07/28 11:23:55;;;;;;;2.65;1.23;;;26.00;52.50;;;;;;5127607;27;45246;-71
2023/07/28 11:26:22;;;;;;;1.85;1.50;;;26.00;52.50;;;;;;5127692;27;45425;-71
2023/07/28 11:28:51;;;;;;;1.90;1.30;;;26.10;52.40;;;;;;5127177;27;45449;-70
2023/07/28 11:31:17;;;;;;;2.35;1.30;;;26.10;52.60;;;;;;5127546;27;45365;-71
2023/07/28 11:33:44;;;;;;;3.08;1.88;;;26.10;52.60;;;;;;5127612;27;45266;-70
2023/07/28 11:36:11;;;;;;;1.33;1.23;;;26.10;52.60;;;;;;5127915;27;45383;-70
2023/07/28 11:38:39;;;;;;;2.50;1.60;;;26.10;52.50;;;;;;5127487;27;46752;-70
2023/07/28 11:41:06;;;;;;;3.58;1.75;;;26.10;53.10;;;;;;5127400;27;45349;-70
2023/07/28 11:43:33;;;;;;;3.72;1.58;;;26.10;52.50;;;;;;5127433;27;45322;-72
2023/07/28 11:46:02;;;;;;;2.63;1.50;;;26.20;52.60;;;;;;5128076;27;45321;-72
2023/07/28 11:48:31;;;;;;;2.70;1.83;;;26.20;52.70;;;;;;5128804;27;46581;-70
2023/07/28 11:50:58;;;;;;;2.63;1.50;;;26.20;52.50;;;;;;5130053;27;45310;-72
2023/07/28 11:53:26;;;;;;;1.50;1.40;;;26.20;52.50;;;;;;5130361;27;45256;-71
2023/07/28 11:55:53;;;;;;;3.38;1.70;;;26.20;52.40;;;;;;5131109;27;45428;-72
2023/07/28 11:58:20;;;;;;;2.95;1.27;;;26.20;52.50;;;;;;5130587;27;45388;-71
2023/07/28 12:00:47;;;;;;;2.38;1.80;;;26.20;52.50;;;;;;5130509;27;45274;-71
2023/07/28 12:03:15;;;;;;;2.63;1.55;;;26.20;52.50;;;;;;5130931;27;45202;-70
2023/07/28 12:05:43;;;;;;;1.25;1.15;;;26.20;52.60;;;;;;5130650;27;45424;-70
2023/07/28 12:08:11;;;;;;;2.10;1.90;;;26.20;52.60;;;;;;5130262;27;45357;-70
2023/07/28 12:10:37;;;;;;;1.58;1.48;;;26.20;52.60;;;;;;5126098;27;45311;-70
2023/07/28 12:13:05;;;;;;;2.30;1.50;;;26.30;52.70;;;;;;5130542;27;45302;-71
2023/07/28 12:15:32;;;;;;;2.30;1.50;;;26.20;52.60;;;;;;5130512;27;45542;-70
2023/07/28 12:18:08;;;;;;;1.88;1.30;;;26.20;52.60;;;;;;5129844;27;45324;-70
2023/07/28 12:20:37;;;;;;;1.88;1.77;;;26.20;52.70;;;;;;5130155;27;45373;-72
2023/07/28 12:23:04;;;;;;;6.63;1.73;;;26.20;52.50;;;;;;5130277;27;45275;-71
2023/07/28 12:25:31;;;;;;;3.88;1.52;;;26.20;52.60;;;;;;5130288;27;45314;-70
2023/07/28 12:27:57;;;;;;;3.03;1.75;;;26.20;52.40;;;;;;5130005;27;45467;-71
2023/07/28 12:30:24;;;;;;;3.08;1.83;;;26.20;52.50;;;;;;5130097;27;45414;-72
2023/07/28 12:32:51;;;;;;;2.58;1.60;;;26.20;52.30;;;;;;5130144;27;45385;-71
2023/07/28 12:35:18;;;;;;;1.60;1.50;;;26.20;52.30;;;;;;5130184;27;45383;-71
2023/07/28 12:37:46;;;;;;;1.52;1.42;;;26.20;52.50;;;;;;5128970;27;46400;-72
2023/07/28 12:40:13;;;;;;;2.03;1.67;;;26.20;52.30;;;;;;5129341;27;45445;-71
2023/07/28 12:42:40;;;;;;;2.10;1.80;;;26.20;53.00;;;;;;5130086;27;45379;-72
2023/07/28 12:45:08;;;;;;;2.15;1.42;;;26.20;52.50;;;;;;5130135;27;45477;-72
2023/07/28 12:47:35;;;;;;;1.70;1.60;;;26.20;52.50;;;;;;5129638;27;45872;-71